createdAt,value
2023-03-07T00:00:32.766Z,7.90
2023-03-07T00:03:01.361Z,8.20
2023-03-07T00:05:29.778Z,8.00
2023-03-07T00:07:59.154Z,8.20
2023-03-07T00:10:27.468Z,8.10
2023-03-07T00:12:58.911Z,8.40
2023-03-07T00:15:27.273Z,8.00
2023-03-07T00:17:55.728Z,8.50
2023-03-07T00:20:24.438Z,7.90
2023-03-07T00:22:52.894Z,8.90
2023-03-07T00:25:21.143Z,8.70
2023-03-07T00:27:49.562Z,8.00
2023-03-07T00:30:18.217Z,7.90
2023-03-07T00:32:46.472Z,8.30
2023-03-07T00:35:14.957Z,8.70
2023-03-07T00:37:43.233Z,9.00
2023-03-07T00:40:15.862Z,7.60
2023-03-07T00:42:44.850Z,8.40
2023-03-07T00:45:13.804Z,7.80
2023-03-07T00:47:42.318Z,8.10
2023-03-07T00:50:11.185Z,8.30
2023-03-07T00:52:39.882Z,8.30
2023-03-07T00:55:09.039Z,8.70
2023-03-07T00:57:38.970Z,8.70
2023-03-07T01:00:09.245Z,8.60
2023-03-07T01:02:37.808Z,8.20
2023-03-07T01:05:07.455Z,8.20
2023-03-07T01:07:36.318Z,8.60
2023-03-07T01:10:06.714Z,8.50
2023-03-07T01:12:36.114Z,9.40
2023-03-07T01:15:06.666Z,9.00
2023-03-07T01:17:35.418Z,9.60
2023-03-07T01:20:07.352Z,8.60
2023-03-07T01:22:36.954Z,9.00
2023-03-07T01:25:07.390Z,8.40
2023-03-07T01:27:36.325Z,8.00
2023-03-07T01:30:08.466Z,8.80
2023-03-07T01:32:38.928Z,7.80
2023-03-07T01:35:07.771Z,8.80
2023-03-07T01:37:36.177Z,8.90
2023-03-07T01:40:05.535Z,9.00
2023-03-07T01:42:33.987Z,9.30
2023-03-07T01:45:07.141Z,9.20
2023-03-07T01:47:46.647Z,8.50
2023-03-07T01:50:16.843Z,9.00
2023-03-07T01:52:47.836Z,8.70
2023-03-07T01:55:27.300Z,9.30
2023-03-07T01:58:00.932Z,9.10
2023-03-07T02:00:30.126Z,8.30
2023-03-07T02:03:11.744Z,7.40
2023-03-07T02:05:45.835Z,8.20
2023-03-07T02:08:14.627Z,9.20
2023-03-07T02:10:44.467Z,9.70
2023-03-07T02:13:13.232Z,8.40
2023-03-07T02:15:51.344Z,9.20
2023-03-07T02:18:21.766Z,9.00
2023-03-07T02:20:56.188Z,9.90
2023-03-07T02:23:40.843Z,9.80
2023-03-07T02:26:12.578Z,9.70
2023-03-07T02:28:42.866Z,9.40
2023-03-07T02:31:11.796Z,9.60
2023-03-07T02:33:41.401Z,9.50
2023-03-07T02:36:18.199Z,9.60
2023-03-07T02:38:53.196Z,9.60
2023-03-07T02:41:27.795Z,9.10
2023-03-07T02:43:58.181Z,8.90
2023-03-07T02:46:26.918Z,9.30
2023-03-07T02:48:56.311Z,9.10
2023-03-07T02:51:24.772Z,9.00
2023-03-07T02:53:53.243Z,9.00
2023-03-07T02:56:21.988Z,10.70
2023-03-07T02:58:50.614Z,9.40
2023-03-07T03:01:19.250Z,10.10
2023-03-07T03:03:47.769Z,9.50
2023-03-07T03:06:16.040Z,9.30
2023-03-07T03:08:44.459Z,9.70
2023-03-07T03:11:13.300Z,8.90
2023-03-07T03:13:43.007Z,9.70
2023-03-07T03:16:11.496Z,9.30
2023-03-07T03:18:40.904Z,9.40
2023-03-07T03:21:10.748Z,8.70
2023-03-07T03:23:39.385Z,8.40
2023-03-07T03:26:11.791Z,8.90
2023-03-07T03:28:41.094Z,8.80
2023-03-07T03:31:11.432Z,9.00
2023-03-07T03:33:42.257Z,8.40
2023-03-07T03:36:13.173Z,8.50
2023-03-07T03:38:42.424Z,8.90
2023-03-07T03:41:13.206Z,8.30
2023-03-07T03:43:42.205Z,8.80
2023-03-07T03:46:10.475Z,7.80
2023-03-07T03:48:39.171Z,8.20
2023-03-07T03:51:12.038Z,7.80
2023-03-07T03:53:41.302Z,9.30
2023-03-07T03:56:14.557Z,8.20
2023-03-07T03:58:43.207Z,8.30
2023-03-07T04:01:12.122Z,8.60
2023-03-07T04:03:50.745Z,7.90
2023-03-07T04:06:21.310Z,6.90
2023-03-07T04:08:51.526Z,7.20
2023-03-07T04:11:21.035Z,7.10
2023-03-07T04:13:50.240Z,6.50
2023-03-07T04:16:23.379Z,6.40
2023-03-07T04:18:52.599Z,6.70
2023-03-07T04:21:21.587Z,6.50
2023-03-07T04:23:58.634Z,6.80
2023-03-07T04:26:32.365Z,6.50
2023-03-07T04:29:00.763Z,6.30
2023-03-07T04:31:35.385Z,6.20
2023-03-07T04:34:05.596Z,6.00
2023-03-07T04:36:34.504Z,6.20
2023-03-07T04:39:02.964Z,6.70
2023-03-07T04:41:32.721Z,6.10
2023-03-07T04:44:18.991Z,6.50
2023-03-07T04:46:47.343Z,5.90
2023-03-07T04:49:16.118Z,6.60
2023-03-07T04:51:44.644Z,5.60
2023-03-07T04:54:15.584Z,6.30
2023-03-07T04:56:44.812Z,6.10
2023-03-07T04:59:13.657Z,6.00
2023-03-07T05:01:42.833Z,5.70
2023-03-07T05:04:11.683Z,6.40
2023-03-07T05:06:42.661Z,6.10
2023-03-07T05:09:11.508Z,6.30
2023-03-07T05:11:40.465Z,6.40
2023-03-07T05:14:10.117Z,6.70
2023-03-07T05:16:38.624Z,6.70
2023-03-07T05:19:07.073Z,6.60
2023-03-07T05:21:35.392Z,6.10
2023-03-07T05:24:07.987Z,6.60
2023-03-07T05:26:37.839Z,6.40
2023-03-07T05:29:06.079Z,6.00
2023-03-07T05:31:36.329Z,6.60
2023-03-07T05:34:08.628Z,6.60
2023-03-07T05:36:37.763Z,6.60
2023-03-07T05:39:06.280Z,6.30
2023-03-07T05:41:36.554Z,6.90
2023-03-07T05:44:05.404Z,7.10
2023-03-07T05:46:34.751Z,7.10
2023-03-07T05:49:04.554Z,7.20
2023-03-07T05:51:33.042Z,7.20
2023-03-07T05:54:01.486Z,6.90
2023-03-07T05:56:30.462Z,7.50
2023-03-07T05:58:58.785Z,7.90
2023-03-07T06:01:28.346Z,7.90
2023-03-07T06:03:58.587Z,7.80
2023-03-07T06:06:26.855Z,7.50
2023-03-07T06:08:56.554Z,7.10
2023-03-07T06:11:24.966Z,7.50
2023-03-07T06:14:00.331Z,7.20
2023-03-07T06:16:30.270Z,7.20
2023-03-07T06:19:01.055Z,7.50
2023-03-07T06:21:30.820Z,7.20
2023-03-07T06:23:59.559Z,7.00
2023-03-07T06:26:28.341Z,6.30
2023-03-07T06:28:57.528Z,6.70
2023-03-07T06:31:27.202Z,6.50
2023-03-07T06:33:57.650Z,6.50
2023-03-07T06:36:27.176Z,7.50
2023-03-07T06:39:01.427Z,6.50
2023-03-07T06:41:30.353Z,6.40
2023-03-07T06:43:59.916Z,7.00
2023-03-07T06:46:31.730Z,8.10
2023-03-07T06:49:05.222Z,7.00
2023-03-07T06:51:36.063Z,7.20
2023-03-07T06:54:09.558Z,8.00
2023-03-07T06:56:38.193Z,7.30
2023-03-07T06:59:06.983Z,7.50
2023-03-07T07:01:36.351Z,6.80
2023-03-07T07:04:06.081Z,6.00
2023-03-07T07:06:38.515Z,6.80
2023-03-07T07:09:06.938Z,6.60
2023-03-07T07:11:38.998Z,7.20
2023-03-07T07:14:11.345Z,7.00
2023-03-07T07:16:39.884Z,7.20
2023-03-07T07:19:09.721Z,7.10
2023-03-07T07:21:38.412Z,7.30
2023-03-07T07:24:07.507Z,8.30
2023-03-07T07:26:36.549Z,6.80
2023-03-07T07:29:05.244Z,6.90
2023-03-07T07:31:33.985Z,7.00
2023-03-07T07:34:02.695Z,6.90
2023-03-07T07:36:32.923Z,6.00
2023-03-07T07:39:05.586Z,5.80
2023-03-07T07:41:35.072Z,6.30
2023-03-07T07:44:03.813Z,5.90
2023-03-07T07:46:41.200Z,6.20
2023-03-07T07:49:10.040Z,6.40
2023-03-07T07:51:40.985Z,6.50
2023-03-07T07:54:10.000Z,6.70
2023-03-07T07:56:38.572Z,6.20
2023-03-07T07:59:07.210Z,5.80
2023-03-07T08:01:36.081Z,6.30
2023-03-07T08:04:04.479Z,6.00
2023-03-07T08:06:33.902Z,6.50
2023-03-07T08:09:02.357Z,7.00
2023-03-07T08:11:35.102Z,6.60
2023-03-07T08:14:04.627Z,6.40
2023-03-07T08:16:33.363Z,6.60
2023-03-07T08:19:01.825Z,6.20
2023-03-07T08:21:30.656Z,7.00
2023-03-07T08:23:59.770Z,6.80
2023-03-07T08:26:31.741Z,6.60
2023-03-07T08:29:00.368Z,6.00
2023-03-07T08:31:29.062Z,6.80
2023-03-07T08:33:58.448Z,6.70
2023-03-07T08:36:27.343Z,6.40
2023-03-07T08:39:00.121Z,6.30
2023-03-07T08:41:29.121Z,5.80
2023-03-07T08:43:58.282Z,6.30
2023-03-07T08:46:27.044Z,5.90
2023-03-07T08:48:56.301Z,6.90
2023-03-07T08:51:29.284Z,6.40
2023-03-07T08:55:11.605Z,6.20
2023-03-07T08:57:39.035Z,6.30
2023-03-07T09:00:09.017Z,6.70
2023-03-07T09:02:36.036Z,6.00
2023-03-07T09:05:03.774Z,6.20
2023-03-07T09:07:30.716Z,6.00
2023-03-07T09:09:59.542Z,5.90
2023-03-07T09:12:27.289Z,6.30
2023-03-07T09:14:54.531Z,5.80
2023-03-07T09:17:22.136Z,6.20
2023-03-07T09:19:50.135Z,6.80
2023-03-07T09:22:17.414Z,6.90
2023-03-07T09:24:44.671Z,7.60
2023-03-07T09:27:11.974Z,6.30
2023-03-07T09:29:38.899Z,7.10
2023-03-07T09:32:07.576Z,7.20
2023-03-07T09:34:35.602Z,6.80
2023-03-07T09:37:02.684Z,6.70
2023-03-07T09:39:37.666Z,7.50
2023-03-07T09:42:20.236Z,6.60
2023-03-07T09:44:54.701Z,7.10
2023-03-07T09:48:03.231Z,7.40
2023-03-07T09:50:48.525Z,7.30
2023-03-07T09:53:21.888Z,8.70
2023-03-07T09:55:51.351Z,8.10
2023-03-07T09:58:21.508Z,8.00
2023-03-07T10:00:52.271Z,9.00
2023-03-07T10:03:33.391Z,8.60
2023-03-07T10:06:08.718Z,8.20
2023-03-07T10:08:37.610Z,8.30
2023-03-07T10:11:23.331Z,8.10
2023-03-07T10:14:13.646Z,8.30
2023-03-07T10:16:50.284Z,7.60
2023-03-07T10:19:29.518Z,8.50
2023-03-07T10:22:19.060Z,9.30
2023-03-07T10:24:55.298Z,8.20
2023-03-07T10:27:26.545Z,7.50
2023-03-07T10:29:54.771Z,8.20
2023-03-07T10:32:23.130Z,8.40
2023-03-07T10:34:55.553Z,8.50
2023-03-07T10:37:26.747Z,8.60
2023-03-07T10:39:55.747Z,8.10
2023-03-07T10:42:24.001Z,8.00
2023-03-07T10:44:51.531Z,7.90
2023-03-07T10:47:22.987Z,7.70
2023-03-07T10:49:51.929Z,7.50
2023-03-07T10:52:48.069Z,8.00
2023-03-07T10:55:33.848Z,7.70
2023-03-07T10:58:19.356Z,7.10
2023-03-07T11:01:06.084Z,7.80
2023-03-07T11:03:52.220Z,7.20
2023-03-07T11:06:34.317Z,6.60
2023-03-07T11:09:28.455Z,6.00
2023-03-07T11:12:03.992Z,5.60
2023-03-07T11:15:11.543Z,6.60
2023-03-07T11:20:30.452Z,6.30
2023-03-07T11:23:16.374Z,6.10
2023-03-07T11:25:44.600Z,6.10
2023-03-07T11:28:32.951Z,6.90
2023-03-07T11:31:18.863Z,6.80
2023-03-07T11:34:05.894Z,6.20
2023-03-07T11:36:36.266Z,6.70
2023-03-07T11:39:31.302Z,6.30
2023-03-07T11:42:07.842Z,5.60
2023-03-07T11:44:54.173Z,6.40
2023-03-07T11:47:33.523Z,6.20
2023-03-07T11:50:23.575Z,6.00
2023-03-07T11:53:18.195Z,5.50
2023-03-07T11:56:14.822Z,6.10
2023-03-07T11:58:51.495Z,6.00
2023-03-07T12:01:55.951Z,6.40
2023-03-07T12:04:52.335Z,5.40
2023-03-07T12:07:18.991Z,6.40
2023-03-07T12:09:51.836Z,5.80
2023-03-07T12:12:46.995Z,5.80
2023-03-07T12:15:27.820Z,5.80
2023-03-07T12:18:23.900Z,5.80
2023-03-07T12:21:12.560Z,6.40
2023-03-07T12:23:43.273Z,5.20
2023-03-07T12:26:24.576Z,5.60
2023-03-07T12:29:19.535Z,5.50
2023-03-07T12:31:48.277Z,5.60
2023-03-07T12:34:15.461Z,5.80
2023-03-07T12:36:48.571Z,6.30
2023-03-07T12:39:21.204Z,6.20
2023-03-07T12:42:03.022Z,6.10
2023-03-07T12:44:53.162Z,6.00
2023-03-07T12:47:39.441Z,6.30
2023-03-07T12:50:19.057Z,6.10
2023-03-07T12:52:50.182Z,5.90
2023-03-07T12:55:36.684Z,7.00
2023-03-07T12:58:15.205Z,6.00
2023-03-07T13:00:45.585Z,6.00
2023-03-07T13:03:21.665Z,6.50
2023-03-07T13:05:48.821Z,6.50
2023-03-07T13:08:21.293Z,6.20
2023-03-07T13:10:48.677Z,5.80
2023-03-07T13:13:42.794Z,6.20
2023-03-07T13:16:30.727Z,5.70
2023-03-07T13:19:36.055Z,6.00
2023-03-07T13:22:16.260Z,6.00
2023-03-07T13:24:43.853Z,5.90
2023-03-07T13:27:19.390Z,5.50
2023-03-07T13:30:13.016Z,5.30
2023-03-07T13:32:55.200Z,5.80
2023-03-07T13:35:28.207Z,7.20
2023-03-07T13:38:03.981Z,6.50
2023-03-07T13:40:35.446Z,6.10
2023-03-07T13:43:03.360Z,6.10
2023-03-07T13:45:39.930Z,6.20
2023-03-07T13:48:19.218Z,6.00
2023-03-07T13:50:49.181Z,6.20
2023-03-07T13:53:34.003Z,5.70
2023-03-07T13:56:16.816Z,5.80
2023-03-07T13:58:51.966Z,5.80
2023-03-07T14:01:20.585Z,5.90
2023-03-07T14:04:08.242Z,5.90
2023-03-07T14:09:08.056Z,5.80
2023-03-07T14:11:39.623Z,6.10
2023-03-07T14:14:52.145Z,6.40
2023-03-07T14:17:28.771Z,6.30
2023-03-07T14:20:26.077Z,6.10
2023-03-07T14:23:02.372Z,5.70
2023-03-07T14:25:34.185Z,6.40
2023-03-07T14:28:27.100Z,5.90
2023-03-07T14:30:58.451Z,6.80
2023-03-07T14:33:30.804Z,6.60
2023-03-07T14:35:58.808Z,5.70
2023-03-07T14:38:25.913Z,6.60
2023-03-07T14:41:17.926Z,6.50
2023-03-07T14:43:52.423Z,5.70
2023-03-07T14:47:02.814Z,5.90
2023-03-07T14:49:39.900Z,5.90
2023-03-07T14:52:14.415Z,6.20
2023-03-07T14:54:45.848Z,6.20
2023-03-07T14:57:23.706Z,6.20
2023-03-07T15:00:13.131Z,6.00
2023-03-07T15:03:13.204Z,5.40
2023-03-07T15:05:47.491Z,5.90
2023-03-07T15:08:26.137Z,6.10
2023-03-07T15:11:01.650Z,6.20
2023-03-07T15:14:07.989Z,5.90
2023-03-07T15:16:35.389Z,5.90
2023-03-07T15:19:11.767Z,6.00
2023-03-07T15:21:44.160Z,5.60
2023-03-07T15:24:29.073Z,5.60
2023-03-07T15:26:56.136Z,6.90
2023-03-07T15:29:24.526Z,5.80
2023-03-07T15:31:54.655Z,5.80
2023-03-07T15:34:27.052Z,5.40
2023-03-07T15:36:53.929Z,5.90
2023-03-07T15:39:39.133Z,5.90
2023-03-07T15:42:07.219Z,5.90
2023-03-07T15:44:35.800Z,11.90
2023-03-07T15:47:10.863Z,8.50
2023-03-07T15:49:48.356Z,7.20
2023-03-07T15:52:26.730Z,7.30
2023-03-07T15:54:56.087Z,6.40
2023-03-07T15:57:34.263Z,7.10
2023-03-07T16:00:05.514Z,6.00
2023-03-07T16:02:32.831Z,6.40
2023-03-07T16:05:00.889Z,5.90
2023-03-07T16:07:28.031Z,6.00
2023-03-07T16:09:56.295Z,7.00
2023-03-07T16:12:23.392Z,6.70
2023-03-07T16:15:02.386Z,6.90
2023-03-07T16:20:00.342Z,7.60
2023-03-07T16:22:29.284Z,7.40
2023-03-07T16:24:56.795Z,7.00
2023-03-07T16:27:25.557Z,7.80
2023-03-07T16:29:52.709Z,8.90
2023-03-07T16:32:21.029Z,7.90
2023-03-07T16:34:51.288Z,7.70
2023-03-07T16:37:19.922Z,7.90
2023-03-07T16:39:46.741Z,7.90
2023-03-07T16:42:19.629Z,8.50
2023-03-07T16:44:46.705Z,12.50
2023-03-07T16:47:14.980Z,16.80
2023-03-07T16:49:41.876Z,20.10
2023-03-07T16:52:13.254Z,22.60
2023-03-07T16:54:40.508Z,24.20
2023-03-07T16:57:12.173Z,24.60
2023-03-07T16:59:39.500Z,27.30
2023-03-07T17:02:24.864Z,24.30
2023-03-07T17:04:51.801Z,18.40
2023-03-07T17:07:22.943Z,13.70
2023-03-07T17:09:51.309Z,12.20
2023-03-07T17:12:23.574Z,10.60
2023-03-07T17:14:50.733Z,10.20
2023-03-07T17:17:21.389Z,10.10
2023-03-07T17:19:48.585Z,8.90
2023-03-07T17:22:15.387Z,8.90
2023-03-07T17:24:42.433Z,8.70
2023-03-07T17:27:11.749Z,10.00
2023-03-07T17:29:51.010Z,9.50
2023-03-07T17:32:18.057Z,8.80
2023-03-07T17:34:45.745Z,9.40
2023-03-07T17:37:12.765Z,9.00
2023-03-07T17:39:41.937Z,9.60
2023-03-07T17:42:13.371Z,9.40
2023-03-07T17:44:41.612Z,9.40
2023-03-07T17:47:08.647Z,9.40
2023-03-07T17:49:36.894Z,10.30
2023-03-07T17:52:04.653Z,13.30
2023-03-07T17:54:32.017Z,12.10
2023-03-07T17:56:59.339Z,12.90
2023-03-07T17:59:26.579Z,12.90
2023-03-07T18:01:58.925Z,11.40
2023-03-07T18:04:28.050Z,12.80
2023-03-07T18:06:55.007Z,12.60
2023-03-07T18:09:22.818Z,15.90
2023-03-07T18:14:17.022Z,15.50
2023-03-07T18:16:43.936Z,15.00
2023-03-07T18:19:25.403Z,14.90
2023-03-07T18:21:53.296Z,13.70
2023-03-07T18:24:29.462Z,12.10
2023-03-07T18:26:58.639Z,12.00
2023-03-07T18:29:26.177Z,12.80
2023-03-07T18:31:53.368Z,11.90
2023-03-07T18:34:22.702Z,11.80
2023-03-07T18:36:51.721Z,11.20
2023-03-07T18:39:20.950Z,11.00
2023-03-07T18:41:48.378Z,10.50
2023-03-07T18:44:17.810Z,10.60
2023-03-07T18:46:49.466Z,10.90
2023-03-07T18:49:16.491Z,10.20
2023-03-07T18:51:45.285Z,10.20
2023-03-07T18:54:12.278Z,9.70
2023-03-07T18:56:39.865Z,9.60
2023-03-07T18:59:07.955Z,9.90
2023-03-07T19:01:35.169Z,9.20
2023-03-07T19:04:03.519Z,9.70
2023-03-07T19:06:32.576Z,9.90
2023-03-07T19:08:59.943Z,9.50
2023-03-07T19:11:27.475Z,9.10
2023-03-07T19:13:54.679Z,9.10
2023-03-07T19:16:23.157Z,10.20
2023-03-07T19:18:52.002Z,10.10
2023-03-07T19:21:23.863Z,9.80
2023-03-07T19:23:51.820Z,10.20
2023-03-07T19:26:19.328Z,9.80
2023-03-07T19:28:47.315Z,10.30
2023-03-07T19:33:42.669Z,8.30
2023-03-07T19:36:11.617Z,9.00
2023-03-07T19:38:43.747Z,9.40
2023-03-07T19:41:12.345Z,9.40
2023-03-07T19:43:40.303Z,9.60
2023-03-07T19:46:08.354Z,10.10
2023-03-07T19:48:44.421Z,9.80
2023-03-07T19:51:13.419Z,9.10
2023-03-07T19:53:41.799Z,9.90
2023-03-07T19:56:16.430Z,10.00
2023-03-07T19:58:43.530Z,10.50
2023-03-07T20:01:11.765Z,10.40
2023-03-07T20:03:38.852Z,10.80
2023-03-07T20:06:06.632Z,10.80
2023-03-07T20:08:34.712Z,12.00
2023-03-07T20:11:12.241Z,10.80
2023-03-07T20:13:40.011Z,10.10
2023-03-07T20:16:10.286Z,10.00
2023-03-07T20:18:37.947Z,11.40
2023-03-07T20:21:10.717Z,11.30
2023-03-07T20:23:37.579Z,11.90
2023-03-07T20:26:06.492Z,11.90
2023-03-07T20:28:36.029Z,11.50
2023-03-07T20:31:08.386Z,11.30
2023-03-07T20:33:40.292Z,10.90
2023-03-07T20:36:09.289Z,11.20
2023-03-07T20:38:36.981Z,11.10
2023-03-07T20:41:05.887Z,10.60
2023-03-07T20:43:33.563Z,11.50
2023-03-07T20:46:07.075Z,12.00
2023-03-07T20:48:35.657Z,11.40
2023-03-07T20:51:04.748Z,12.50
2023-03-07T20:53:32.442Z,11.20
2023-03-07T20:56:03.790Z,11.20
2023-03-07T20:58:31.225Z,11.40
2023-03-07T21:00:58.443Z,11.10
2023-03-07T21:03:25.859Z,10.90
2023-03-07T21:05:57.371Z,11.50
2023-03-07T21:11:05.856Z,11.70
2023-03-07T21:13:36.160Z,12.30
2023-03-07T21:16:07.285Z,13.20
2023-03-07T21:18:36.175Z,11.40
2023-03-07T21:21:12.507Z,11.80
2023-03-07T21:23:56.916Z,12.50
2023-03-07T21:26:27.885Z,11.30
2023-03-07T21:28:57.698Z,10.70
2023-03-07T21:31:27.942Z,10.70
2023-03-07T21:34:04.161Z,11.30
2023-03-07T21:36:33.052Z,10.60
2023-03-07T21:39:05.457Z,11.20
2023-03-07T21:41:34.600Z,11.00
2023-03-07T21:44:04.839Z,10.60
2023-03-07T21:46:34.184Z,10.60
2023-03-07T21:49:02.924Z,10.10
2023-03-07T21:51:31.184Z,10.00
2023-03-07T21:53:59.706Z,10.10
2023-03-07T21:56:28.092Z,10.20
2023-03-07T21:58:56.841Z,10.10
2023-03-07T22:01:28.031Z,10.40
2023-03-07T22:03:57.606Z,10.70
2023-03-07T22:06:26.265Z,10.10
2023-03-07T22:08:59.539Z,10.00
2023-03-07T22:11:28.046Z,10.10
2023-03-07T22:13:57.888Z,10.60
2023-03-07T22:16:29.792Z,10.20
2023-03-07T22:18:58.366Z,10.80
2023-03-07T22:21:27.109Z,11.00
2023-03-07T22:24:00.246Z,10.90
2023-03-07T22:26:29.182Z,11.30
2023-03-07T22:28:57.647Z,11.30
2023-03-07T22:31:28.106Z,11.10
2023-03-07T22:33:58.484Z,11.20
2023-03-07T22:36:27.732Z,11.00
2023-03-07T22:38:57.362Z,11.00
2023-03-07T22:41:26.810Z,11.10
2023-03-07T22:43:55.487Z,11.40
2023-03-07T22:46:23.914Z,10.60
2023-03-07T22:48:56.010Z,10.00
2023-03-07T22:51:24.984Z,10.80
2023-03-07T22:53:53.490Z,9.50
2023-03-07T22:56:23.956Z,10.10
2023-03-07T22:58:58.773Z,9.60
2023-03-07T23:01:28.557Z,10.10
2023-03-07T23:03:57.913Z,9.80
2023-03-07T23:06:31.092Z,9.30
2023-03-07T23:08:59.946Z,9.90
2023-03-07T23:11:33.615Z,9.20
2023-03-07T23:14:02.403Z,8.80
2023-03-07T23:16:31.299Z,9.30
2023-03-07T23:19:03.771Z,8.80
2023-03-07T23:21:32.441Z,9.40
2023-03-07T23:24:04.925Z,9.30
2023-03-07T23:26:35.857Z,8.90
2023-03-07T23:29:05.697Z,9.10
2023-03-07T23:31:37.665Z,9.50
2023-03-07T23:34:15.034Z,9.80
2023-03-07T23:36:43.593Z,9.80
2023-03-07T23:39:12.907Z,12.10
2023-03-07T23:41:41.191Z,10.40
2023-03-07T23:44:10.088Z,10.10
2023-03-07T23:46:39.129Z,9.30
2023-03-07T23:49:10.699Z,9.10
2023-03-07T23:51:39.096Z,9.10
2023-03-07T23:54:09.469Z,8.90
2023-03-07T23:56:38.118Z,9.20
2023-03-07T23:59:06.497Z,9.00
